createdAt,value
2017-12-17T00:04:40.832Z,91.02
2017-12-17T00:07:07.006Z,90.91
2017-12-17T00:09:33.144Z,91.52
2017-12-17T00:11:59.432Z,91.02
2017-12-17T00:14:25.511Z,91.12
2017-12-17T00:16:51.574Z,90.52
2017-12-17T00:19:17.638Z,90.66
2017-12-17T00:21:43.889Z,91.54
2017-12-17T00:24:09.930Z,90.98
2017-12-17T00:26:36.334Z,91.02
2017-12-17T00:29:02.482Z,91.33
2017-12-17T00:31:28.478Z,90.26
2017-12-17T00:33:54.610Z,89.79
2017-12-17T00:36:20.723Z,89.28
2017-12-17T00:38:47.229Z,90.24
2017-12-17T00:41:13.382Z,89.90
2017-12-17T00:43:39.447Z,89.62
2017-12-17T00:46:05.604Z,89.78
2017-12-17T00:48:31.645Z,89.44
2017-12-17T00:50:57.823Z,89.51
2017-12-17T00:53:23.906Z,89.61
2017-12-17T00:55:49.979Z,89.13
2017-12-17T00:58:16.129Z,88.89
2017-12-17T01:00:42.182Z,88.92
2017-12-17T01:03:08.720Z,88.77
2017-12-17T01:05:34.727Z,88.29
2017-12-17T01:08:00.753Z,88.27
2017-12-17T01:10:26.918Z,87.99
2017-12-17T01:12:52.974Z,87.74
2017-12-17T01:15:19.439Z,87.89
2017-12-17T01:17:45.607Z,87.67
2017-12-17T01:20:11.690Z,87.71
2017-12-17T01:22:37.799Z,87.67
2017-12-17T01:25:04.126Z,87.61
2017-12-17T01:27:30.537Z,87.76
2017-12-17T01:29:56.590Z,87.92
2017-12-17T01:32:22.715Z,87.85
2017-12-17T01:34:48.901Z,88.14
2017-12-17T01:37:15.070Z,87.98
2017-12-17T01:39:41.559Z,88.43
2017-12-17T01:42:07.594Z,88.45
2017-12-17T01:44:33.626Z,88.79
2017-12-17T01:46:59.695Z,89.12
2017-12-17T01:49:25.730Z,89.22
2017-12-17T01:51:52.293Z,89.35
2017-12-17T01:54:18.422Z,89.23
2017-12-17T01:56:44.455Z,89.38
2017-12-17T01:59:10.566Z,89.43
2017-12-17T02:01:36.706Z,89.69
2017-12-17T02:04:03.108Z,89.74
2017-12-17T02:06:29.164Z,90.19
2017-12-17T02:08:55.247Z,90.61
2017-12-17T02:11:21.726Z,90.63
2017-12-17T02:13:47.758Z,90.65
2017-12-17T02:16:13.926Z,90.84
2017-12-17T02:18:39.974Z,90.87
2017-12-17T02:21:06.082Z,90.76
2017-12-17T02:23:32.162Z,90.83
2017-12-17T02:25:58.235Z,90.72
2017-12-17T02:28:24.278Z,91.07
2017-12-17T02:30:50.651Z,91.09
2017-12-17T02:33:16.802Z,91.29
2017-12-17T02:35:42.917Z,91.34
2017-12-17T02:38:08.971Z,91.38
2017-12-17T02:40:35.019Z,91.30
2017-12-17T02:43:01.590Z,91.53
2017-12-17T02:45:27.627Z,91.44
2017-12-17T02:47:53.661Z,91.43
2017-12-17T02:50:19.738Z,91.60
2017-12-17T02:52:45.790Z,91.45
2017-12-17T02:55:11.865Z,91.54
2017-12-17T02:57:37.895Z,91.56
2017-12-17T03:00:04.266Z,91.61
2017-12-17T03:02:30.314Z,91.71
2017-12-17T03:04:56.370Z,91.89
2017-12-17T03:07:22.450Z,91.88
2017-12-17T03:09:48.470Z,91.80
2017-12-17T03:12:14.863Z,91.54
2017-12-17T03:14:40.890Z,91.57
2017-12-17T03:17:06.914Z,91.60
2017-12-17T03:19:32.986Z,91.51
2017-12-17T03:21:59.050Z,91.58
2017-12-17T03:24:25.198Z,91.65
2017-12-17T03:26:51.300Z,91.35
2017-12-17T03:29:17.697Z,91.45
2017-12-17T03:31:43.769Z,91.42
2017-12-17T03:34:09.898Z,91.28
2017-12-17T03:36:36.022Z,91.14
2017-12-17T03:39:02.059Z,90.98
2017-12-17T03:41:28.431Z,91.09
2017-12-17T03:43:54.520Z,90.88
2017-12-17T03:46:20.598Z,91.10
2017-12-17T03:48:46.659Z,90.86
2017-12-17T03:51:12.733Z,90.76
2017-12-17T03:53:39.105Z,90.76
2017-12-17T03:56:05.860Z,90.72
2017-12-17T03:58:32.052Z,90.83
2017-12-17T04:00:58.150Z,90.83
2017-12-17T04:03:24.222Z,90.80
2017-12-17T04:05:50.311Z,90.90
2017-12-17T04:08:16.343Z,90.83
2017-12-17T04:10:42.702Z,91.00
2017-12-17T04:13:08.746Z,91.08
2017-12-17T04:15:34.898Z,91.13
2017-12-17T04:18:01.015Z,91.19
2017-12-17T04:20:27.063Z,91.30
2017-12-17T04:22:53.195Z,91.39
2017-12-17T04:25:19.271Z,91.40
2017-12-17T04:27:45.622Z,91.65
2017-12-17T04:30:11.664Z,91.66
2017-12-17T04:32:38.027Z,91.69
2017-12-17T04:35:04.173Z,91.71
2017-12-17T04:37:30.215Z,91.72
2017-12-17T04:39:56.376Z,91.52
2017-12-17T04:42:22.386Z,91.59
2017-12-17T04:44:48.507Z,91.70
2017-12-17T04:47:14.654Z,91.50
2017-12-17T04:49:40.786Z,91.47
2017-12-17T04:52:07.265Z,91.20
2017-12-17T04:54:33.343Z,91.09
2017-12-17T04:56:59.406Z,90.88
2017-12-17T04:59:25.543Z,90.89
2017-12-17T05:01:51.586Z,90.95
2017-12-17T05:04:18.115Z,91.29
2017-12-17T05:06:44.163Z,90.33
2017-12-17T05:09:10.182Z,90.41
2017-12-17T05:11:36.226Z,90.59
2017-12-17T05:14:02.272Z,90.34
2017-12-17T05:16:28.774Z,90.37
2017-12-17T05:18:54.828Z,90.66
2017-12-17T05:21:20.905Z,90.74
2017-12-17T05:23:47.006Z,90.97
2017-12-17T05:26:13.074Z,90.81
2017-12-17T05:28:39.151Z,90.49
2017-12-17T05:31:05.214Z,91.90
2017-12-17T05:33:31.637Z,91.69
2017-12-17T05:35:57.697Z,91.69
2017-12-17T05:38:23.774Z,90.96
2017-12-17T05:40:49.863Z,90.65
2017-12-17T05:43:15.967Z,90.62
2017-12-17T05:45:42.048Z,90.05
2017-12-17T05:48:08.374Z,90.24
2017-12-17T05:50:34.818Z,89.94
2017-12-17T05:53:00.931Z,90.58
2017-12-17T05:55:27.112Z,91.19
2017-12-17T05:57:53.239Z,90.41
2017-12-17T06:00:19.379Z,89.81
2017-12-17T06:02:45.519Z,89.87
2017-12-17T06:05:11.551Z,90.35
2017-12-17T06:07:38.011Z,89.91
2017-12-17T06:10:04.103Z,90.55
2017-12-17T06:12:30.134Z,89.96
2017-12-17T06:14:56.215Z,90.27
2017-12-17T06:17:22.329Z,90.66
2017-12-17T06:19:48.433Z,89.98
2017-12-17T06:22:14.538Z,89.93
2017-12-17T06:24:40.898Z,90.18
2017-12-17T06:27:06.946Z,90.20
2017-12-17T06:29:33.073Z,89.87
2017-12-17T06:31:59.211Z,89.78
2017-12-17T06:34:25.298Z,89.70
2017-12-17T06:36:51.378Z,89.92
2017-12-17T06:39:17.483Z,90.24
2017-12-17T06:41:43.938Z,90.58
2017-12-17T06:44:10.203Z,90.57
2017-12-17T06:46:36.242Z,90.80
2017-12-17T06:49:02.289Z,90.45
2017-12-17T06:51:28.409Z,90.98
2017-12-17T06:53:54.886Z,91.03
2017-12-17T06:56:20.982Z,91.10
2017-12-17T06:58:47.036Z,91.24
2017-12-17T07:01:13.110Z,91.37
2017-12-17T07:03:39.192Z,91.36
2017-12-17T07:06:05.302Z,91.64
2017-12-17T07:08:31.384Z,91.86
2017-12-17T07:10:57.773Z,92.12
2017-12-17T07:13:23.840Z,92.37
2017-12-17T07:15:49.934Z,92.55
2017-12-17T07:18:16.057Z,92.79
2017-12-17T07:20:42.120Z,92.49
2017-12-17T07:23:08.512Z,92.62
2017-12-17T07:25:34.622Z,93.03
2017-12-17T07:28:00.724Z,92.70
2017-12-17T07:30:26.811Z,92.65
2017-12-17T07:32:52.866Z,92.63
2017-12-17T07:35:19.024Z,92.83
2017-12-17T07:37:45.075Z,92.60
2017-12-17T07:40:11.502Z,92.58
2017-12-17T07:42:37.584Z,92.30
2017-12-17T07:45:03.638Z,92.20
2017-12-17T07:47:29.735Z,92.02
2017-12-17T07:49:55.857Z,91.88
2017-12-17T07:52:22.869Z,92.02
2017-12-17T07:54:48.914Z,92.01
2017-12-17T07:57:15.318Z,91.70
2017-12-17T07:59:41.410Z,91.78
2017-12-17T08:02:07.475Z,91.80
2017-12-17T08:04:33.560Z,91.78
2017-12-17T08:06:59.639Z,92.13
2017-12-17T08:09:25.855Z,92.12
2017-12-17T08:11:51.975Z,92.10
2017-12-17T08:14:18.039Z,92.33
2017-12-17T08:16:44.063Z,91.97
2017-12-17T08:19:10.465Z,92.14
2017-12-17T08:21:36.537Z,92.63
2017-12-17T08:24:02.622Z,92.64
2017-12-17T08:26:28.689Z,92.08
2017-12-17T08:28:54.714Z,91.69
2017-12-17T08:31:20.926Z,91.27
2017-12-17T08:33:46.986Z,91.32
2017-12-17T08:36:13.596Z,91.56
2017-12-17T08:38:39.846Z,91.83
2017-12-17T08:41:06.051Z,92.37
2017-12-17T08:43:32.143Z,92.26
2017-12-17T08:45:58.262Z,93.38
2017-12-17T08:48:24.340Z,92.88
2017-12-17T08:50:50.409Z,92.69
2017-12-17T08:53:16.793Z,92.51
2017-12-17T08:55:42.933Z,92.45
2017-12-17T08:58:08.993Z,92.32
2017-12-17T09:00:35.110Z,91.95
2017-12-17T09:03:01.170Z,91.95
2017-12-17T09:05:27.575Z,92.09
2017-12-17T09:07:53.803Z,92.66
2017-12-17T09:10:20.305Z,92.05
2017-12-17T09:12:46.540Z,91.66
2017-12-17T09:15:12.625Z,91.11
2017-12-17T09:17:38.875Z,90.31
2017-12-17T09:20:04.963Z,90.17
2017-12-17T09:22:31.056Z,89.94
2017-12-17T09:24:57.203Z,90.49
2017-12-17T09:27:23.832Z,91.51
2017-12-17T09:29:49.959Z,91.12
2017-12-17T09:32:16.106Z,90.09
2017-12-17T09:34:42.281Z,89.60
2017-12-17T09:37:08.375Z,89.04
2017-12-17T09:39:34.839Z,89.09
2017-12-17T09:42:01.416Z,88.96
2017-12-17T09:44:27.540Z,89.26
2017-12-17T09:46:53.754Z,89.52
2017-12-17T09:49:19.810Z,89.29
2017-12-17T09:51:46.323Z,89.11
2017-12-17T09:54:12.485Z,89.51
2017-12-17T09:56:38.556Z,90.01
2017-12-17T09:59:04.656Z,89.90
2017-12-17T10:01:30.750Z,89.69
2017-12-17T10:03:56.921Z,88.95
2017-12-17T10:06:23.118Z,87.71
2017-12-17T10:08:49.621Z,87.88
2017-12-17T10:11:15.711Z,88.04
2017-12-17T10:13:41.712Z,87.48
2017-12-17T10:16:07.778Z,87.65
2017-12-17T10:18:33.811Z,87.55
2017-12-17T10:20:59.903Z,87.72
2017-12-17T10:23:25.986Z,87.27
2017-12-17T10:25:52.427Z,86.90
2017-12-17T10:28:18.532Z,87.29
2017-12-17T10:30:44.573Z,87.93
2017-12-17T10:33:10.666Z,88.52
2017-12-17T10:35:36.734Z,88.45
2017-12-17T10:38:03.255Z,88.27
2017-12-17T10:40:29.379Z,87.95
2017-12-17T10:42:55.567Z,87.88
2017-12-17T10:45:21.695Z,86.55
2017-12-17T10:47:47.820Z,87.55
2017-12-17T10:50:13.889Z,87.69
2017-12-17T10:52:40.023Z,87.12
2017-12-17T10:55:06.426Z,87.32
2017-12-17T10:57:32.569Z,87.80
2017-12-17T10:59:58.644Z,87.96
2017-12-17T11:02:24.689Z,87.76
2017-12-17T11:04:50.754Z,88.56
2017-12-17T11:07:17.194Z,88.05
2017-12-17T11:09:43.265Z,87.01
2017-12-17T11:12:09.340Z,88.73
2017-12-17T11:14:35.392Z,87.57
2017-12-17T11:17:01.494Z,86.87
2017-12-17T11:19:27.989Z,87.21
2017-12-17T11:21:54.085Z,87.14
2017-12-17T11:24:20.138Z,86.67
2017-12-17T11:26:46.270Z,86.97
2017-12-17T11:29:12.305Z,87.28
2017-12-17T11:31:38.473Z,87.49
2017-12-17T11:34:04.507Z,87.37
2017-12-17T11:36:30.894Z,86.41
2017-12-17T11:38:56.996Z,86.83
2017-12-17T11:41:23.058Z,85.82
2017-12-17T11:43:49.369Z,86.59
2017-12-17T11:46:15.562Z,86.72
2017-12-17T11:48:42.177Z,85.44
2017-12-17T11:51:08.230Z,85.91
2017-12-17T11:53:34.258Z,85.92
2017-12-17T11:56:00.344Z,85.57
2017-12-17T11:58:26.426Z,85.63
2017-12-17T12:00:52.672Z,86.38
2017-12-17T12:03:18.795Z,86.05
2017-12-17T12:05:45.259Z,86.39
2017-12-17T12:08:11.364Z,85.83
2017-12-17T12:10:37.440Z,85.49
2017-12-17T12:13:03.493Z,85.63
2017-12-17T12:15:29.584Z,86.42
2017-12-17T12:17:56.142Z,85.62
2017-12-17T12:20:22.266Z,86.49
2017-12-17T12:22:48.309Z,86.63
2017-12-17T12:25:14.401Z,86.15
2017-12-17T12:27:40.478Z,85.94
2017-12-17T12:30:07.154Z,85.88
2017-12-17T12:32:33.274Z,85.78
2017-12-17T12:34:59.315Z,86.01
2017-12-17T12:37:25.471Z,85.63
2017-12-17T12:39:51.521Z,85.72
2017-12-17T12:42:17.634Z,85.84
2017-12-17T12:44:43.675Z,85.54
2017-12-17T12:47:10.150Z,86.02
2017-12-17T12:49:36.190Z,85.28
2017-12-17T12:52:02.266Z,85.57
2017-12-17T12:54:28.386Z,85.26
2017-12-17T12:56:54.437Z,84.67
2017-12-17T12:59:20.502Z,85.74
2017-12-17T13:01:46.605Z,86.34
2017-12-17T13:04:13.139Z,85.09
2017-12-17T13:06:39.266Z,83.56
2017-12-17T13:09:05.395Z,84.54
2017-12-17T13:11:31.738Z,84.52
2017-12-17T13:13:57.788Z,84.21
2017-12-17T13:16:24.286Z,83.98
2017-12-17T13:18:50.401Z,84.38
2017-12-17T13:21:16.522Z,84.29
2017-12-17T13:23:42.622Z,85.08
2017-12-17T13:26:08.655Z,85.48
2017-12-17T13:28:35.142Z,85.79
2017-12-17T13:31:01.214Z,86.51
2017-12-17T13:33:27.250Z,85.49
2017-12-17T13:35:53.484Z,85.44
2017-12-17T13:38:19.696Z,85.41
2017-12-17T13:40:46.290Z,85.75
2017-12-17T13:43:12.350Z,85.20
2017-12-17T13:45:38.439Z,85.44
2017-12-17T13:48:04.592Z,86.02
2017-12-17T13:50:30.631Z,85.82
2017-12-17T13:52:57.051Z,86.34
2017-12-17T13:55:23.119Z,85.43
2017-12-17T13:57:49.179Z,85.84
2017-12-17T14:00:15.302Z,85.73
2017-12-17T14:02:41.411Z,86.27
2017-12-17T14:05:07.786Z,86.40
2017-12-17T14:07:33.875Z,85.47
2017-12-17T14:09:59.902Z,85.67
2017-12-17T14:12:26.090Z,84.74
2017-12-17T14:14:52.301Z,85.43
2017-12-17T14:17:18.840Z,85.13
2017-12-17T14:19:44.948Z,86.12
2017-12-17T14:22:10.978Z,85.44
2017-12-17T14:24:37.146Z,85.46
2017-12-17T14:27:03.419Z,85.62
2017-12-17T14:29:29.919Z,85.61
2017-12-17T14:31:56.047Z,85.54
2017-12-17T14:34:22.182Z,86.04
2017-12-17T14:36:48.412Z,86.19
2017-12-17T14:39:14.491Z,86.13
2017-12-17T14:41:40.615Z,86.75
2017-12-17T14:44:06.680Z,86.92
2017-12-17T14:46:32.853Z,87.01
2017-12-17T14:48:59.023Z,86.38
2017-12-17T14:51:25.080Z,86.71
2017-12-17T14:53:51.518Z,86.57
2017-12-17T14:56:17.606Z,86.84
2017-12-17T14:58:43.743Z,86.89
2017-12-17T15:01:10.002Z,86.46
2017-12-17T15:03:36.063Z,87.26
2017-12-17T15:06:02.594Z,87.23
2017-12-17T15:08:28.687Z,86.89
2017-12-17T15:10:54.749Z,87.17
2017-12-17T15:13:21.025Z,86.87
2017-12-17T15:15:47.429Z,86.95
2017-12-17T15:18:13.581Z,87.24
2017-12-17T15:20:39.646Z,87.27
2017-12-17T15:23:06.158Z,86.95
2017-12-17T15:25:32.217Z,87.57
2017-12-17T15:27:58.376Z,87.14
2017-12-17T15:30:24.467Z,87.07
2017-12-17T15:32:50.537Z,87.12
2017-12-17T15:35:16.611Z,87.62
2017-12-17T15:37:42.731Z,87.39
2017-12-17T15:40:09.217Z,87.23
2017-12-17T15:42:35.327Z,87.56
2017-12-17T15:45:01.457Z,88.30
2017-12-17T15:47:27.559Z,87.76
2017-12-17T15:49:53.632Z,87.87
2017-12-17T15:52:19.765Z,87.93
2017-12-17T15:54:45.827Z,88.36
2017-12-17T15:57:12.218Z,87.54
2017-12-17T15:59:38.274Z,87.44
2017-12-17T16:02:04.317Z,87.56
2017-12-17T16:04:30.434Z,87.52
2017-12-17T16:06:56.554Z,87.32
2017-12-17T16:09:23.046Z,87.30
2017-12-17T16:11:49.174Z,87.44
2017-12-17T16:14:15.275Z,87.13
2017-12-17T16:16:41.392Z,87.49
2017-12-17T16:19:07.466Z,87.60
2017-12-17T16:21:33.851Z,87.15
2017-12-17T16:23:59.983Z,86.86
2017-12-17T16:26:26.240Z,86.65
2017-12-17T16:28:52.391Z,86.76
2017-12-17T16:31:18.504Z,86.41
2017-12-17T16:33:45.189Z,86.65
2017-12-17T16:36:11.315Z,86.52
2017-12-17T16:38:37.434Z,86.61
2017-12-17T16:41:03.632Z,86.47
2017-12-17T16:43:29.733Z,86.68
2017-12-17T16:45:56.306Z,86.66
2017-12-17T16:48:22.408Z,86.97
2017-12-17T16:50:48.509Z,87.04
2017-12-17T16:53:14.705Z,86.92
2017-12-17T16:55:40.915Z,87.83
2017-12-17T16:58:06.988Z,88.10
2017-12-17T17:00:33.354Z,88.59
2017-12-17T17:02:59.766Z,88.76
2017-12-17T17:05:25.884Z,88.32
2017-12-17T17:07:52.001Z,89.18
2017-12-17T17:10:18.083Z,89.65
2017-12-17T17:12:44.207Z,90.25
2017-12-17T17:15:10.398Z,91.81
2017-12-17T17:17:36.592Z,92.22
2017-12-17T17:20:02.977Z,91.99
2017-12-17T17:22:29.436Z,92.16
2017-12-17T17:24:55.619Z,91.68
2017-12-17T17:27:21.704Z,91.29
2017-12-17T17:29:47.866Z,91.31
2017-12-17T17:32:13.987Z,91.52
2017-12-17T17:34:40.117Z,93.12
2017-12-17T17:37:06.246Z,94.08
2017-12-17T17:39:32.825Z,94.30
2017-12-17T17:41:58.853Z,94.41
2017-12-17T17:44:24.974Z,94.42
2017-12-17T17:46:51.038Z,93.84
2017-12-17T17:49:17.136Z,93.72
2017-12-17T17:51:43.281Z,92.76
2017-12-17T17:54:09.496Z,93.09
2017-12-17T17:56:35.943Z,93.28
2017-12-17T17:59:02.042Z,93.62
2017-12-17T18:01:28.189Z,93.92
2017-12-17T18:03:54.418Z,95.10
2017-12-17T18:06:20.539Z,95.82
2017-12-17T18:08:46.666Z,96.26
2017-12-17T18:11:12.778Z,96.26
2017-12-17T18:13:39.253Z,96.01
2017-12-17T18:16:05.375Z,96.01
2017-12-17T18:18:31.511Z,95.67
2017-12-17T18:20:57.667Z,95.63
2017-12-17T18:23:23.819Z,95.11
2017-12-17T18:25:50.326Z,94.24
2017-12-17T18:28:16.428Z,94.10
2017-12-17T18:30:42.533Z,92.78
2017-12-17T18:33:08.669Z,93.45
2017-12-17T18:35:34.788Z,94.01
2017-12-17T18:38:00.923Z,93.78
2017-12-17T18:40:27.111Z,93.69
2017-12-17T18:42:53.609Z,93.99
2017-12-17T18:45:19.731Z,93.94
2017-12-17T18:47:45.886Z,93.91
2017-12-17T18:50:12.068Z,93.67
2017-12-17T18:52:38.170Z,93.72
2017-12-17T18:55:04.241Z,93.88
2017-12-17T18:57:30.354Z,93.79
2017-12-17T18:59:56.806Z,93.59
2017-12-17T19:02:22.918Z,93.44
2017-12-17T19:04:48.994Z,93.41
2017-12-17T19:07:15.179Z,93.26
2017-12-17T19:09:41.294Z,93.50
2017-12-17T19:12:07.839Z,93.10
2017-12-17T19:14:33.931Z,93.87
2017-12-17T19:17:00.022Z,93.36
2017-12-17T19:19:26.208Z,93.77
2017-12-17T19:21:52.314Z,93.90
2017-12-17T19:24:18.477Z,93.95
2017-12-17T19:26:44.510Z,93.53
2017-12-17T19:29:10.987Z,93.40
2017-12-17T19:31:37.826Z,93.83
2017-12-17T19:34:03.952Z,93.81
2017-12-17T19:36:30.107Z,92.97
2017-12-17T19:38:56.222Z,93.40
2017-12-17T19:41:22.696Z,93.53
2017-12-17T19:43:49.819Z,92.68
2017-12-17T19:46:15.993Z,92.25
2017-12-17T19:48:42.708Z,91.98
2017-12-17T19:51:08.918Z,91.30
2017-12-17T19:53:35.034Z,91.18
2017-12-17T19:56:01.843Z,91.47
2017-12-17T19:58:27.966Z,92.52
2017-12-17T20:00:54.147Z,92.41
2017-12-17T20:03:20.338Z,91.45
2017-12-17T20:05:46.654Z,91.22
2017-12-17T20:08:12.872Z,90.93
2017-12-17T20:10:39.126Z,90.76
2017-12-17T20:13:05.583Z,90.90
2017-12-17T20:15:31.731Z,91.38
2017-12-17T20:17:57.882Z,91.66
2017-12-17T20:20:24.119Z,91.52
2017-12-17T20:22:50.238Z,91.65
2017-12-17T20:25:16.885Z,91.79
2017-12-17T20:27:43.010Z,91.78
2017-12-17T20:30:09.181Z,91.99
2017-12-17T20:32:35.330Z,91.61
2017-12-17T20:35:01.441Z,91.43
2017-12-17T20:37:27.905Z,92.42
2017-12-17T20:39:54.051Z,93.56
2017-12-17T20:42:20.189Z,93.74
2017-12-17T20:44:46.307Z,92.97
2017-12-17T20:47:12.362Z,92.46
2017-12-17T20:49:38.716Z,92.18
2017-12-17T20:52:04.747Z,92.04
2017-12-17T20:54:30.777Z,92.40
2017-12-17T20:56:56.912Z,92.06
2017-12-17T20:59:23.015Z,92.06
2017-12-17T21:01:49.599Z,91.92
2017-12-17T21:04:15.680Z,92.01
2017-12-17T21:06:41.754Z,92.58
2017-12-17T21:09:07.830Z,93.00
2017-12-17T21:11:33.900Z,93.13
2017-12-17T21:14:00.337Z,93.52
2017-12-17T21:16:26.386Z,93.18
2017-12-17T21:18:52.479Z,93.50
2017-12-17T21:21:18.570Z,93.87
2017-12-17T21:23:44.640Z,93.72
2017-12-17T21:26:11.052Z,92.85
2017-12-17T21:28:37.475Z,92.40
2017-12-17T21:31:03.571Z,92.33
2017-12-17T21:33:29.653Z,92.24
2017-12-17T21:35:55.719Z,92.22
2017-12-17T21:38:22.158Z,92.18
2017-12-17T21:40:48.136Z,92.35
2017-12-17T21:43:14.226Z,92.15
2017-12-17T21:45:40.365Z,92.10
2017-12-17T21:48:06.404Z,92.20
2017-12-17T21:50:32.490Z,92.19
2017-12-17T21:52:58.561Z,91.92
2017-12-17T21:55:24.900Z,91.72
2017-12-17T21:57:50.969Z,91.74
2017-12-17T22:00:17.029Z,91.29
2017-12-17T22:02:43.066Z,90.87
2017-12-17T22:05:09.144Z,91.11
2017-12-17T22:07:35.222Z,90.76
2017-12-17T22:10:01.322Z,90.59
2017-12-17T22:12:27.441Z,90.42
2017-12-17T22:14:53.842Z,90.46
2017-12-17T22:17:19.873Z,90.36
2017-12-17T22:19:45.909Z,90.50
2017-12-17T22:22:11.925Z,90.25
2017-12-17T22:24:37.999Z,90.29
2017-12-17T22:27:04.452Z,90.43
2017-12-17T22:29:30.514Z,90.52
2017-12-17T22:31:56.642Z,90.61
2017-12-17T22:34:22.798Z,90.95
2017-12-17T22:36:48.850Z,91.26
2017-12-17T22:39:14.913Z,91.59
2017-12-17T22:41:40.987Z,91.29
2017-12-17T22:44:07.365Z,90.99
2017-12-17T22:46:33.393Z,90.91
2017-12-17T22:48:59.414Z,90.46
2017-12-17T22:51:25.396Z,90.60
2017-12-17T22:53:51.526Z,91.45
2017-12-17T22:56:17.614Z,91.44
2017-12-17T22:58:43.675Z,92.47
2017-12-17T23:01:10.133Z,91.87
2017-12-17T23:03:36.257Z,90.87
2017-12-17T23:06:02.327Z,90.75
2017-12-17T23:08:28.456Z,91.51
2017-12-17T23:10:54.476Z,91.52
2017-12-17T23:13:20.573Z,91.87
2017-12-17T23:15:46.620Z,92.39
2017-12-17T23:18:13.021Z,93.09
2017-12-17T23:20:39.074Z,93.03
2017-12-17T23:23:05.122Z,92.65
2017-12-17T23:25:31.137Z,93.07
2017-12-17T23:27:57.144Z,92.72
2017-12-17T23:30:23.559Z,92.62
2017-12-17T23:32:49.634Z,92.18
2017-12-17T23:35:15.747Z,91.85
2017-12-17T23:37:41.869Z,91.87
2017-12-17T23:40:07.958Z,92.04
2017-12-17T23:42:33.985Z,91.13
2017-12-17T23:45:00.049Z,90.84
2017-12-17T23:47:26.472Z,90.62
2017-12-17T23:49:52.594Z,90.85
2017-12-17T23:52:18.685Z,90.38
2017-12-17T23:54:44.754Z,90.75
2017-12-17T23:57:10.797Z,90.51
2017-12-17T23:59:37.214Z,89.54
